createdAt,value
2022-08-26T00:00:06.155Z,1005.74
2022-08-26T00:01:06.115Z,1005.75
2022-08-26T00:02:06.197Z,1005.76
2022-08-26T00:03:06.260Z,1005.73
2022-08-26T00:04:06.145Z,1005.75
2022-08-26T00:05:06.105Z,1005.75
2022-08-26T00:06:06.084Z,1005.75
2022-08-26T00:07:06.055Z,1005.76
2022-08-26T00:08:06.044Z,1005.75
2022-08-26T00:09:08.039Z,1005.74
2022-08-26T00:10:06.084Z,1005.75
2022-08-26T00:11:06.015Z,1005.76
2022-08-26T00:12:06.004Z,1005.77
2022-08-26T00:13:06.224Z,1005.74
2022-08-26T00:14:05.975Z,1005.74
2022-08-26T00:15:05.972Z,1005.79
2022-08-26T00:16:06.038Z,1005.75
2022-08-26T00:17:05.945Z,1005.73
2022-08-26T00:18:05.935Z,1005.71
2022-08-26T00:19:06.932Z,1005.74
2022-08-26T00:20:05.924Z,1005.70
2022-08-26T00:21:06.088Z,1005.71
2022-08-26T00:22:05.935Z,1005.70
2022-08-26T00:23:06.120Z,1005.69
2022-08-26T00:24:05.875Z,1005.68
2022-08-26T00:25:05.866Z,1005.70
2022-08-26T00:26:05.857Z,1005.73
2022-08-26T00:27:06.439Z,1005.76
2022-08-26T00:28:05.836Z,1005.73
2022-08-26T00:29:06.005Z,1005.71
2022-08-26T00:30:05.843Z,1005.73
2022-08-26T00:31:05.826Z,1005.73
2022-08-26T00:32:05.815Z,1005.78
2022-08-26T00:33:05.874Z,1005.79
2022-08-26T00:34:05.768Z,1005.81
2022-08-26T00:35:05.809Z,1005.88
2022-08-26T00:36:05.749Z,1005.93
2022-08-26T00:37:09.418Z,1005.90
2022-08-26T00:38:05.728Z,1005.88
2022-08-26T00:39:05.717Z,1005.87
2022-08-26T00:40:05.763Z,1005.92
2022-08-26T00:41:05.733Z,1006.00
2022-08-26T00:42:05.717Z,1005.93
2022-08-26T00:43:07.129Z,1006.06
2022-08-26T00:44:05.674Z,1006.03
2022-08-26T00:45:11.541Z,1006.04
2022-08-26T00:46:06.757Z,1006.05
2022-08-26T00:47:05.657Z,1005.99
2022-08-26T00:48:05.641Z,1006.01
2022-08-26T00:49:11.920Z,1006.05
2022-08-26T00:50:06.608Z,1006.01
2022-08-26T00:51:05.587Z,1006.07
2022-08-26T00:52:05.608Z,1006.09
2022-08-26T00:53:05.640Z,1006.06
2022-08-26T00:54:05.588Z,1006.09
2022-08-26T00:55:05.548Z,1006.04
2022-08-26T00:56:05.538Z,1006.04
2022-08-26T00:57:05.535Z,1006.05
2022-08-26T00:58:06.548Z,1006.06
2022-08-26T00:59:05.498Z,1006.03
2022-08-26T01:00:05.501Z,1006.05
2022-08-26T01:01:05.515Z,1006.04
2022-08-26T01:02:05.524Z,1006.01
2022-08-26T01:03:05.730Z,1006.04
2022-08-26T01:04:06.463Z,1006.07
2022-08-26T01:05:05.440Z,1006.02
2022-08-26T01:06:05.429Z,1006.02
2022-08-26T01:07:06.421Z,1005.95
2022-08-26T01:08:05.413Z,1006.00
2022-08-26T01:09:05.467Z,1005.96
2022-08-26T01:10:05.396Z,1005.94
2022-08-26T01:11:05.380Z,1005.99
2022-08-26T01:12:05.380Z,1005.98
2022-08-26T01:13:05.353Z,1006.02
2022-08-26T01:14:05.351Z,1005.97
2022-08-26T01:15:05.359Z,1005.93
2022-08-26T01:16:05.399Z,1005.95
2022-08-26T01:17:05.319Z,1005.94
2022-08-26T01:18:05.367Z,1005.94
2022-08-26T01:19:05.295Z,1005.97
2022-08-26T01:20:05.369Z,1005.99
2022-08-26T01:21:05.270Z,1005.98
2022-08-26T01:22:05.262Z,1005.97
2022-08-26T01:23:05.394Z,1005.96
2022-08-26T01:24:05.240Z,1005.93
2022-08-26T01:25:05.259Z,1005.92
2022-08-26T01:26:05.252Z,1005.92
2022-08-26T01:27:05.229Z,1005.92
2022-08-26T01:28:05.202Z,1005.92
2022-08-26T01:29:05.190Z,1005.90
2022-08-26T01:30:05.183Z,1005.83
2022-08-26T01:31:05.210Z,1005.86
2022-08-26T01:32:05.295Z,1005.80
2022-08-26T01:33:05.142Z,1005.82
2022-08-26T01:34:05.221Z,1005.85
2022-08-26T01:35:05.176Z,1005.85
2022-08-26T01:36:05.112Z,1005.83
2022-08-26T01:37:05.389Z,1005.85
2022-08-26T01:38:05.092Z,1005.91
2022-08-26T01:39:05.917Z,1005.94
2022-08-26T01:40:05.165Z,1005.94
2022-08-26T01:41:16.389Z,1005.94
2022-08-26T01:42:06.064Z,1006.01
2022-08-26T01:43:05.041Z,1006.02
2022-08-26T01:44:05.024Z,1006.03
2022-08-26T01:45:05.055Z,1006.00
2022-08-26T01:46:05.080Z,1006.03
2022-08-26T01:47:05.199Z,1006.01
2022-08-26T01:48:05.034Z,1006.04
2022-08-26T01:49:06.456Z,1006.09
2022-08-26T01:50:05.003Z,1006.08
2022-08-26T01:51:04.951Z,1006.12
2022-08-26T01:52:04.949Z,1006.15
2022-08-26T01:53:04.957Z,1006.14
2022-08-26T01:54:04.952Z,1006.14
2022-08-26T01:55:04.933Z,1006.12
2022-08-26T01:56:04.903Z,1006.16
2022-08-26T01:57:04.894Z,1006.16
2022-08-26T01:58:05.253Z,1006.24
2022-08-26T01:59:04.867Z,1006.26
2022-08-26T02:00:04.898Z,1006.23
2022-08-26T02:01:04.876Z,1006.20
2022-08-26T02:02:04.854Z,1006.22
2022-08-26T02:03:04.861Z,1006.23
2022-08-26T02:04:04.852Z,1006.20
2022-08-26T02:05:04.814Z,1006.23
2022-08-26T02:06:04.803Z,1006.21
2022-08-26T02:07:04.784Z,1006.24
2022-08-26T02:08:04.775Z,1006.28
2022-08-26T02:09:04.765Z,1006.28
2022-08-26T02:10:04.802Z,1006.37
2022-08-26T02:11:04.749Z,1006.37
2022-08-26T02:12:04.732Z,1006.38
2022-08-26T02:13:04.769Z,1006.41
2022-08-26T02:14:04.744Z,1006.43
2022-08-26T02:15:05.776Z,1006.43
2022-08-26T02:16:04.761Z,1006.47
2022-08-26T02:17:04.684Z,1006.52
2022-08-26T02:18:04.674Z,1006.55
2022-08-26T02:19:04.653Z,1006.57
2022-08-26T02:20:04.645Z,1006.57
2022-08-26T02:21:06.626Z,1006.55
2022-08-26T02:22:04.655Z,1006.56
2022-08-26T02:23:04.692Z,1006.59
2022-08-26T02:24:04.605Z,1006.59
2022-08-26T02:25:04.584Z,1006.54
2022-08-26T02:26:04.582Z,1006.48
2022-08-26T02:27:09.596Z,1006.49
2022-08-26T02:28:04.577Z,1006.47
2022-08-26T02:29:04.555Z,1006.45
2022-08-26T02:30:04.536Z,1006.50
2022-08-26T02:31:04.541Z,1006.47
2022-08-26T02:32:04.565Z,1006.50
2022-08-26T02:33:04.542Z,1006.54
2022-08-26T02:34:04.505Z,1006.50
2022-08-26T02:35:04.515Z,1006.53
2022-08-26T02:36:04.518Z,1006.52
2022-08-26T02:37:04.469Z,1006.54
2022-08-26T02:38:10.101Z,1006.54
2022-08-26T02:39:05.468Z,1006.50
2022-08-26T02:40:04.521Z,1006.49
2022-08-26T02:41:04.424Z,1006.54
2022-08-26T02:42:04.433Z,1006.48
2022-08-26T02:43:04.398Z,1006.57
2022-08-26T02:44:04.426Z,1006.54
2022-08-26T02:45:04.391Z,1006.56
2022-08-26T02:46:04.377Z,1006.53
2022-08-26T02:47:04.383Z,1006.51
2022-08-26T02:48:04.376Z,1006.53
2022-08-26T02:49:04.338Z,1006.59
2022-08-26T02:50:04.326Z,1006.58
2022-08-26T02:51:04.388Z,1006.56
2022-08-26T02:52:04.306Z,1006.56
2022-08-26T02:53:04.363Z,1006.60
2022-08-26T02:54:04.307Z,1006.62
2022-08-26T02:55:04.278Z,1006.59
2022-08-26T02:56:04.303Z,1006.62
2022-08-26T02:57:04.244Z,1006.55
2022-08-26T02:58:04.249Z,1006.51
2022-08-26T02:59:04.227Z,1006.56
2022-08-26T03:00:04.224Z,1006.56
2022-08-26T03:01:04.980Z,1006.53
2022-08-26T03:02:04.321Z,1006.50
2022-08-26T03:03:04.227Z,1006.53
2022-08-26T03:04:04.190Z,1006.47
2022-08-26T03:05:04.183Z,1006.53
2022-08-26T03:06:04.156Z,1006.53
2022-08-26T03:07:04.178Z,1006.51
2022-08-26T03:08:04.138Z,1006.53
2022-08-26T03:09:04.120Z,1006.50
2022-08-26T03:10:06.952Z,1006.49
2022-08-26T03:11:04.107Z,1006.53
2022-08-26T03:12:04.090Z,1006.52
2022-08-26T03:13:05.212Z,1006.48
2022-08-26T03:14:04.068Z,1006.51
2022-08-26T03:15:16.414Z,1006.50
2022-08-26T03:16:05.086Z,1006.48
2022-08-26T03:17:04.042Z,1006.54
2022-08-26T03:18:04.056Z,1006.55
2022-08-26T03:19:04.010Z,1006.54
2022-08-26T03:20:03.998Z,1006.53
2022-08-26T03:21:03.995Z,1006.53
2022-08-26T03:22:03.979Z,1006.49
2022-08-26T03:23:04.059Z,1006.53
2022-08-26T03:24:03.987Z,1006.55
2022-08-26T03:25:03.949Z,1006.57
2022-08-26T03:26:03.939Z,1006.59
2022-08-26T03:27:05.885Z,1006.61
2022-08-26T03:28:03.909Z,1006.62
2022-08-26T03:29:03.900Z,1006.62
2022-08-26T03:30:03.891Z,1006.64
2022-08-26T03:31:03.980Z,1006.63
2022-08-26T03:32:03.869Z,1006.63
2022-08-26T03:33:03.866Z,1006.62
2022-08-26T03:34:03.867Z,1006.60
2022-08-26T03:35:03.842Z,1006.61
2022-08-26T03:36:03.879Z,1006.67
2022-08-26T03:37:03.830Z,1006.65
2022-08-26T03:38:03.809Z,1006.65
2022-08-26T03:39:03.810Z,1006.63
2022-08-26T03:40:03.805Z,1006.60
2022-08-26T03:41:03.779Z,1006.60
2022-08-26T03:42:03.800Z,1006.57
2022-08-26T03:43:03.879Z,1006.59
2022-08-26T03:44:03.749Z,1006.58
2022-08-26T03:45:03.753Z,1006.55
2022-08-26T03:46:03.765Z,1006.55
2022-08-26T03:47:03.718Z,1006.56
2022-08-26T03:48:03.702Z,1006.61
2022-08-26T03:49:03.732Z,1006.62
2022-08-26T03:50:03.733Z,1006.61
2022-08-26T03:51:03.679Z,1006.62
2022-08-26T03:52:03.661Z,1006.65
2022-08-26T03:53:03.754Z,1006.63
2022-08-26T03:54:03.641Z,1006.61
2022-08-26T03:55:03.639Z,1006.63
2022-08-26T03:56:03.651Z,1006.64
2022-08-26T03:57:03.611Z,1006.65
2022-08-26T03:58:03.595Z,1006.63
2022-08-26T03:59:03.591Z,1006.65
2022-08-26T04:00:03.620Z,1006.62
2022-08-26T04:01:03.601Z,1006.66
2022-08-26T04:02:03.659Z,1006.66
2022-08-26T04:03:04.668Z,1006.64
2022-08-26T04:04:03.590Z,1006.67
2022-08-26T04:05:03.581Z,1006.64
2022-08-26T04:06:03.514Z,1006.70
2022-08-26T04:07:03.510Z,1006.69
2022-08-26T04:08:03.493Z,1006.74
2022-08-26T04:09:04.215Z,1006.69
2022-08-26T04:10:03.511Z,1006.67
2022-08-26T04:11:03.502Z,1006.68
2022-08-26T04:12:03.466Z,1006.67
2022-08-26T04:13:03.442Z,1006.66
2022-08-26T04:14:03.430Z,1006.69
2022-08-26T04:15:03.452Z,1006.70
2022-08-26T04:16:03.434Z,1006.70
2022-08-26T04:17:03.412Z,1006.71
2022-08-26T04:18:03.383Z,1006.69
2022-08-26T04:19:03.385Z,1006.72
2022-08-26T04:20:03.392Z,1006.73
2022-08-26T04:21:03.359Z,1006.72
2022-08-26T04:22:03.342Z,1006.72
2022-08-26T04:23:03.417Z,1006.70
2022-08-26T04:24:03.645Z,1006.76
2022-08-26T04:25:03.322Z,1006.75
2022-08-26T04:26:03.342Z,1006.75
2022-08-26T04:27:03.308Z,1006.77
2022-08-26T04:28:03.273Z,1006.74
2022-08-26T04:29:03.273Z,1006.75
2022-08-26T04:30:03.292Z,1006.77
2022-08-26T04:31:03.323Z,1006.80
2022-08-26T04:32:03.274Z,1006.80
2022-08-26T04:33:03.232Z,1006.75
2022-08-26T04:34:04.215Z,1006.78
2022-08-26T04:35:03.210Z,1006.83
2022-08-26T04:36:03.193Z,1006.81
2022-08-26T04:37:03.216Z,1006.85
2022-08-26T04:38:03.219Z,1006.86
2022-08-26T04:39:03.173Z,1006.83
2022-08-26T04:40:03.209Z,1006.82
2022-08-26T04:41:03.153Z,1006.82
2022-08-26T04:42:03.164Z,1006.82
2022-08-26T04:43:03.152Z,1006.83
2022-08-26T04:44:03.103Z,1006.83
2022-08-26T04:45:05.876Z,1006.86
2022-08-26T04:46:04.190Z,1006.87
2022-08-26T04:47:03.137Z,1006.89
2022-08-26T04:48:03.107Z,1006.89
2022-08-26T04:49:03.062Z,1006.95
2022-08-26T04:50:03.084Z,1006.95
2022-08-26T04:51:03.045Z,1006.97
2022-08-26T04:52:03.030Z,1006.97
2022-08-26T04:53:03.018Z,1006.97
2022-08-26T04:54:03.003Z,1006.96
2022-08-26T04:55:03.003Z,1006.94
2022-08-26T04:56:03.022Z,1006.95
2022-08-26T04:57:02.973Z,1006.94
2022-08-26T04:58:02.968Z,1007.00
2022-08-26T04:59:02.955Z,1006.99
2022-08-26T05:00:02.975Z,1007.02
2022-08-26T05:01:02.936Z,1006.98
2022-08-26T05:02:03.015Z,1007.04
2022-08-26T05:03:02.944Z,1007.01
2022-08-26T05:04:02.937Z,1007.03
2022-08-26T05:05:03.894Z,1007.03
2022-08-26T05:06:02.883Z,1007.05
2022-08-26T05:08:12.405Z,1007.02
2022-08-26T05:09:12.396Z,1006.97
2022-08-26T05:10:12.342Z,1006.98
2022-08-26T05:11:12.315Z,1007.00
2022-08-26T05:12:12.573Z,1006.98
2022-08-26T05:13:15.167Z,1007.05
2022-08-26T05:14:12.288Z,1007.03
2022-08-26T05:15:12.275Z,1007.05
2022-08-26T05:16:12.288Z,1007.06
2022-08-26T05:17:14.984Z,1007.08
2022-08-26T05:18:12.285Z,1007.08
2022-08-26T05:19:12.306Z,1007.09
2022-08-26T05:20:13.230Z,1007.11
2022-08-26T05:21:12.208Z,1007.06
2022-08-26T05:22:13.242Z,1007.06
2022-08-26T05:23:12.186Z,1007.10
2022-08-26T05:24:12.216Z,1007.06
2022-08-26T05:25:12.166Z,1007.12
2022-08-26T05:26:12.156Z,1007.11
2022-08-26T05:27:12.593Z,1007.10
2022-08-26T05:28:12.146Z,1007.11
2022-08-26T05:29:12.147Z,1007.10
2022-08-26T05:30:12.145Z,1007.13
2022-08-26T05:31:12.150Z,1007.13
2022-08-26T05:32:12.096Z,1007.12
2022-08-26T05:33:12.131Z,1007.14
2022-08-26T05:34:12.074Z,1007.10
2022-08-26T05:35:12.057Z,1007.14
2022-08-26T05:36:12.126Z,1007.16
2022-08-26T05:37:13.635Z,1007.16
2022-08-26T05:38:12.956Z,1007.13
2022-08-26T05:39:12.016Z,1007.15
2022-08-26T05:40:12.032Z,1007.19
2022-08-26T05:41:11.998Z,1007.14
2022-08-26T05:42:12.016Z,1007.17
2022-08-26T05:43:11.976Z,1007.17
2022-08-26T05:44:12.016Z,1007.17
2022-08-26T05:45:11.957Z,1007.13
2022-08-26T05:46:12.015Z,1007.17
2022-08-26T05:47:11.970Z,1007.14
2022-08-26T05:48:11.947Z,1007.16
2022-08-26T05:49:12.658Z,1007.10
2022-08-26T05:50:11.977Z,1007.15
2022-08-26T05:51:11.887Z,1007.16
2022-08-26T05:52:11.878Z,1007.19
2022-08-26T05:53:11.869Z,1007.18
2022-08-26T05:54:11.868Z,1007.20
2022-08-26T05:55:11.867Z,1007.26
2022-08-26T05:56:11.842Z,1007.24
2022-08-26T05:57:11.818Z,1007.29
2022-08-26T05:58:11.818Z,1007.27
2022-08-26T05:59:14.375Z,1007.27
2022-08-26T06:00:11.887Z,1007.25
2022-08-26T06:01:11.831Z,1007.25
2022-08-26T06:02:11.792Z,1007.25
2022-08-26T06:03:11.805Z,1007.20
2022-08-26T06:04:11.750Z,1007.22
2022-08-26T06:05:11.738Z,1007.23
2022-08-26T06:06:11.768Z,1007.22
2022-08-26T06:07:12.343Z,1007.26
2022-08-26T06:08:11.710Z,1007.26
2022-08-26T06:09:11.709Z,1007.31
2022-08-26T06:10:32.178Z,1007.29
2022-08-26T06:11:18.395Z,1007.28
2022-08-26T06:12:12.668Z,1007.28
2022-08-26T06:13:12.112Z,1007.24
2022-08-26T06:14:11.680Z,1007.25
2022-08-26T06:15:11.628Z,1007.26
2022-08-26T06:16:11.707Z,1007.27
2022-08-26T06:17:11.629Z,1007.24
2022-08-26T06:18:11.599Z,1007.26
2022-08-26T06:19:11.806Z,1007.24
2022-08-26T06:20:11.579Z,1007.25
2022-08-26T06:21:11.621Z,1007.26
2022-08-26T06:22:11.580Z,1007.26
2022-08-26T06:23:11.539Z,1007.22
2022-08-26T06:24:11.540Z,1007.23
2022-08-26T06:25:11.527Z,1007.28
2022-08-26T06:26:11.553Z,1007.29
2022-08-26T06:27:11.697Z,1007.32
2022-08-26T06:28:11.502Z,1007.31
2022-08-26T06:29:11.470Z,1007.30
2022-08-26T06:30:11.519Z,1007.30
2022-08-26T06:31:11.536Z,1007.35
2022-08-26T06:32:11.497Z,1007.37
2022-08-26T06:33:11.485Z,1007.40
2022-08-26T06:34:11.429Z,1007.43
2022-08-26T06:35:12.009Z,1007.43
2022-08-26T06:36:11.442Z,1007.46
2022-08-26T06:37:11.399Z,1007.39
2022-08-26T06:38:11.419Z,1007.44
2022-08-26T06:39:11.371Z,1007.42
2022-08-26T06:40:11.452Z,1007.45
2022-08-26T06:41:11.392Z,1007.48
2022-08-26T06:42:11.975Z,1007.52
2022-08-26T06:43:11.329Z,1007.51
2022-08-26T06:44:15.884Z,1007.48
2022-08-26T06:45:11.350Z,1007.49
2022-08-26T06:46:11.801Z,1007.48
2022-08-26T06:47:11.281Z,1007.49
2022-08-26T06:48:11.281Z,1007.54
2022-08-26T06:49:11.260Z,1007.50
2022-08-26T06:50:11.334Z,1007.52
2022-08-26T06:51:11.240Z,1007.49
2022-08-26T06:52:11.231Z,1007.52
2022-08-26T06:53:11.224Z,1007.54
2022-08-26T06:54:11.240Z,1007.50
2022-08-26T06:55:11.249Z,1007.50
2022-08-26T06:56:11.181Z,1007.51
2022-08-26T06:57:11.180Z,1007.52
2022-08-26T06:58:11.170Z,1007.50
2022-08-26T06:59:11.270Z,1007.52
2022-08-26T07:00:11.201Z,1007.54
2022-08-26T07:01:11.510Z,1007.55
2022-08-26T07:02:13.572Z,1007.49
2022-08-26T07:03:11.406Z,1007.55
2022-08-26T07:04:11.144Z,1007.53
2022-08-26T07:05:11.081Z,1007.54
2022-08-26T07:06:11.122Z,1007.53
2022-08-26T07:07:11.061Z,1007.55
2022-08-26T07:08:11.074Z,1007.59
2022-08-26T07:09:11.042Z,1007.56
2022-08-26T07:10:11.041Z,1007.57
2022-08-26T07:11:11.052Z,1007.57
2022-08-26T07:12:11.023Z,1007.59
2022-08-26T07:13:11.192Z,1007.59
2022-08-26T07:14:11.051Z,1007.54
2022-08-26T07:15:11.043Z,1007.58
2022-08-26T07:16:10.993Z,1007.57
2022-08-26T07:17:13.837Z,1007.58
2022-08-26T07:18:10.962Z,1007.57
2022-08-26T07:19:11.636Z,1007.60
2022-08-26T07:20:10.923Z,1007.62
2022-08-26T07:21:10.953Z,1007.60
2022-08-26T07:22:10.942Z,1007.64
2022-08-26T07:23:11.849Z,1007.63
2022-08-26T07:24:11.137Z,1007.68
2022-08-26T07:25:10.913Z,1007.61
2022-08-26T07:26:10.862Z,1007.64
2022-08-26T07:27:10.889Z,1007.59
2022-08-26T07:28:10.855Z,1007.60
2022-08-26T07:29:10.873Z,1007.60
2022-08-26T07:30:10.850Z,1007.59
2022-08-26T07:31:10.830Z,1007.62
2022-08-26T07:32:10.818Z,1007.62
2022-08-26T07:33:10.876Z,1007.66
2022-08-26T07:34:10.818Z,1007.64
2022-08-26T07:35:10.783Z,1007.64
2022-08-26T07:36:10.753Z,1007.66
2022-08-26T07:37:10.735Z,1007.67
2022-08-26T07:38:10.763Z,1007.64
2022-08-26T07:39:10.754Z,1007.67
2022-08-26T07:40:10.750Z,1007.65
2022-08-26T07:41:10.693Z,1007.68
2022-08-26T07:42:10.694Z,1007.71
2022-08-26T07:43:10.744Z,1007.74
2022-08-26T07:44:10.664Z,1007.72
2022-08-26T07:45:10.687Z,1007.73
2022-08-26T07:46:15.897Z,1007.73
2022-08-26T07:47:24.727Z,1007.76
2022-08-26T07:48:11.665Z,1007.73
2022-08-26T07:49:10.605Z,1007.80
2022-08-26T07:50:10.605Z,1007.79
2022-08-26T07:51:10.628Z,1007.79
2022-08-26T07:52:10.590Z,1007.80
2022-08-26T07:53:10.844Z,1007.90
2022-08-26T07:54:10.565Z,1007.88
2022-08-26T07:55:10.551Z,1007.89
2022-08-26T07:56:10.535Z,1007.89
2022-08-26T07:57:10.557Z,1007.87
2022-08-26T07:58:10.513Z,1007.90
2022-08-26T07:59:13.785Z,1007.90
2022-08-26T08:00:10.493Z,1007.96
2022-08-26T08:01:10.487Z,1007.89
2022-08-26T08:02:10.465Z,1007.91
2022-08-26T08:03:10.638Z,1007.90
2022-08-26T08:04:10.495Z,1007.91
2022-08-26T08:05:10.521Z,1007.92
2022-08-26T08:06:10.428Z,1007.89
2022-08-26T08:07:11.522Z,1007.93
2022-08-26T08:08:26.889Z,1007.94
2022-08-26T08:09:11.447Z,1007.93
2022-08-26T08:10:11.614Z,1007.93
2022-08-26T08:11:10.574Z,1007.96
2022-08-26T08:12:14.139Z,1007.95
2022-08-26T08:13:10.354Z,1007.95
2022-08-26T08:14:11.836Z,1008.03
2022-08-26T08:15:10.368Z,1007.99
2022-08-26T08:16:12.439Z,1008.01
2022-08-26T08:18:15.304Z,1007.96
2022-08-26T08:19:11.294Z,1007.99
2022-08-26T08:20:10.278Z,1008.03
2022-08-26T08:21:21.742Z,1007.95
2022-08-26T08:22:17.820Z,1007.94
2022-08-26T08:23:11.247Z,1008.02
2022-08-26T08:24:10.228Z,1007.99
2022-08-26T08:25:10.557Z,1008.02
2022-08-26T08:26:10.199Z,1008.03
2022-08-26T08:27:10.208Z,1008.06
2022-08-26T08:28:10.446Z,1008.04
2022-08-26T08:29:10.193Z,1008.04
2022-08-26T08:30:10.159Z,1008.05
2022-08-26T08:31:10.222Z,1008.10
2022-08-26T08:32:11.525Z,1008.09
2022-08-26T08:33:10.169Z,1008.16
2022-08-26T08:34:10.120Z,1008.17
2022-08-26T08:35:11.082Z,1008.12
2022-08-26T08:36:10.127Z,1008.18
2022-08-26T08:37:11.106Z,1008.16
2022-08-26T08:38:10.164Z,1008.12
2022-08-26T08:39:10.089Z,1008.16
2022-08-26T08:40:10.136Z,1008.14
2022-08-26T08:41:10.051Z,1008.15
2022-08-26T08:42:10.037Z,1008.13
2022-08-26T08:43:10.254Z,1008.15
2022-08-26T08:44:10.008Z,1008.18
2022-08-26T08:45:09.999Z,1008.21
2022-08-26T08:46:10.059Z,1008.20
2022-08-26T08:47:09.989Z,1008.18
2022-08-26T08:48:10.142Z,1008.20
2022-08-26T08:49:09.970Z,1008.20
2022-08-26T08:50:09.948Z,1008.20
2022-08-26T08:51:09.969Z,1008.18
2022-08-26T08:52:09.918Z,1008.20
2022-08-26T08:53:09.949Z,1008.21
2022-08-26T08:54:09.939Z,1008.19
2022-08-26T08:55:11.127Z,1008.22
2022-08-26T08:56:09.879Z,1008.21
2022-08-26T08:57:09.879Z,1008.17
2022-08-26T08:58:10.194Z,1008.18
2022-08-26T08:59:09.882Z,1008.18
2022-08-26T09:00:09.841Z,1008.18
2022-08-26T09:01:09.986Z,1008.14
2022-08-26T09:02:09.863Z,1008.18
2022-08-26T09:03:09.808Z,1008.13
2022-08-26T09:04:09.823Z,1008.13
2022-08-26T09:05:09.779Z,1008.16
2022-08-26T09:06:13.632Z,1008.19
2022-08-26T09:07:09.768Z,1008.17
2022-08-26T09:08:11.092Z,1008.17
2022-08-26T09:09:09.740Z,1008.18
2022-08-26T09:10:09.729Z,1008.23
2022-08-26T09:11:09.722Z,1008.23
2022-08-26T09:12:09.719Z,1008.24
2022-08-26T09:13:09.720Z,1008.17
2022-08-26T09:14:10.680Z,1008.19
2022-08-26T09:15:09.679Z,1008.15
2022-08-26T09:16:10.031Z,1008.18
2022-08-26T09:17:09.716Z,1008.21
2022-08-26T09:18:10.887Z,1008.18
2022-08-26T09:19:09.657Z,1008.20
2022-08-26T09:20:09.619Z,1008.19
2022-08-26T09:21:09.639Z,1008.16
2022-08-26T09:22:09.959Z,1008.19
2022-08-26T09:23:09.780Z,1008.17
2022-08-26T09:24:11.224Z,1008.26
2022-08-26T09:25:11.216Z,1008.23
2022-08-26T09:26:09.639Z,1008.26
2022-08-26T09:27:11.472Z,1008.26
2022-08-26T09:28:09.806Z,1008.25
2022-08-26T09:29:09.639Z,1008.24
2022-08-26T09:30:11.370Z,1008.22
2022-08-26T09:31:11.513Z,1008.23
2022-08-26T09:32:09.513Z,1008.23
2022-08-26T09:33:14.341Z,1008.20
2022-08-26T09:34:10.492Z,1008.23
2022-08-26T09:35:09.463Z,1008.23
2022-08-26T09:36:09.442Z,1008.19
2022-08-26T09:37:09.462Z,1008.22
2022-08-26T09:38:11.731Z,1008.21
2022-08-26T09:39:09.419Z,1008.23
2022-08-26T09:40:09.432Z,1008.29
2022-08-26T09:41:09.396Z,1008.24
2022-08-26T09:42:09.563Z,1008.28
2022-08-26T09:43:09.502Z,1008.21
2022-08-26T09:44:09.393Z,1008.22
2022-08-26T09:45:11.390Z,1008.18
2022-08-26T09:46:09.541Z,1008.20
2022-08-26T09:47:10.008Z,1008.17
2022-08-26T09:48:09.473Z,1008.13
2022-08-26T09:49:09.366Z,1008.22
2022-08-26T09:50:10.989Z,1008.16
2022-08-26T09:51:09.346Z,1008.18
2022-08-26T09:52:09.309Z,1008.18
2022-08-26T09:53:10.007Z,1008.18
2022-08-26T09:54:09.324Z,1008.18
2022-08-26T09:55:09.359Z,1008.21
2022-08-26T09:56:09.273Z,1008.23
2022-08-26T09:57:10.125Z,1008.20
2022-08-26T09:58:09.385Z,1008.20
2022-08-26T09:59:11.061Z,1008.18
2022-08-26T10:00:09.268Z,1008.14
2022-08-26T10:01:09.316Z,1008.13
2022-08-26T10:02:12.275Z,1008.13
2022-08-26T10:03:09.417Z,1008.14
2022-08-26T10:04:09.269Z,1008.13
2022-08-26T10:05:10.525Z,1008.13
2022-08-26T10:06:10.535Z,1008.13
2022-08-26T10:07:09.212Z,1008.10
2022-08-26T10:08:09.187Z,1008.09
2022-08-26T10:09:10.856Z,1008.07
2022-08-26T10:10:09.131Z,1008.06
2022-08-26T10:11:09.102Z,1008.06
2022-08-26T10:12:09.853Z,1008.05
2022-08-26T10:13:10.321Z,1008.03
2022-08-26T10:14:09.108Z,1008.06
2022-08-26T10:15:09.086Z,1008.07
2022-08-26T10:16:10.804Z,1008.07
2022-08-26T10:17:09.687Z,1008.09
2022-08-26T10:18:09.216Z,1008.03
2022-08-26T10:19:09.060Z,1008.06
2022-08-26T10:20:22.566Z,1008.05
2022-08-26T10:21:11.152Z,1008.05
2022-08-26T10:22:09.535Z,1008.04
2022-08-26T10:23:09.207Z,1008.05
2022-08-26T10:24:11.458Z,1008.00
2022-08-26T10:25:09.037Z,1008.03
2022-08-26T10:26:11.112Z,1007.99
2022-08-26T10:27:09.994Z,1008.00
2022-08-26T10:28:09.076Z,1008.02
2022-08-26T10:29:08.974Z,1008.02
2022-08-26T10:30:08.940Z,1008.01
2022-08-26T10:31:08.986Z,1008.00
2022-08-26T10:32:09.743Z,1008.01
2022-08-26T10:33:10.138Z,1008.07
2022-08-26T10:34:08.895Z,1008.00
2022-08-26T10:35:08.904Z,1008.04
2022-08-26T10:36:08.929Z,1008.07
2022-08-26T10:37:15.013Z,1008.04
2022-08-26T10:38:10.971Z,1008.06
2022-08-26T10:39:08.848Z,1008.07
2022-08-26T10:40:09.896Z,1008.02
2022-08-26T10:41:09.969Z,1008.04
2022-08-26T10:42:08.898Z,1008.02
2022-08-26T10:43:11.011Z,1008.00
2022-08-26T10:44:08.814Z,1008.03
2022-08-26T10:45:12.022Z,1008.01
2022-08-26T10:46:11.323Z,1007.98
2022-08-26T10:47:08.784Z,1008.00
2022-08-26T10:48:09.011Z,1008.04
2022-08-26T10:49:08.766Z,1008.04
2022-08-26T10:50:11.480Z,1008.09
2022-08-26T10:51:08.873Z,1008.03
2022-08-26T10:52:15.193Z,1008.03
2022-08-26T10:53:10.734Z,1008.04
2022-08-26T10:54:09.409Z,1008.05
2022-08-26T10:55:08.760Z,1008.00
2022-08-26T10:56:18.617Z,1008.02
2022-08-26T10:57:10.501Z,1008.02
2022-08-26T10:58:09.172Z,1008.03
2022-08-26T10:59:12.348Z,1008.02
2022-08-26T11:00:09.571Z,1008.02
2022-08-26T11:01:10.576Z,1008.06
2022-08-26T11:02:08.602Z,1008.00
2022-08-26T11:03:09.458Z,1008.02
2022-08-26T11:04:09.674Z,1008.03
2022-08-26T11:05:08.552Z,1008.04
2022-08-26T11:06:08.622Z,1008.02
2022-08-26T11:07:15.979Z,1008.00
2022-08-26T11:08:08.532Z,1008.01
2022-08-26T11:09:08.480Z,1008.10
2022-08-26T11:10:08.462Z,1008.04
2022-08-26T11:11:08.431Z,1008.03
2022-08-26T11:12:10.180Z,1008.06
2022-08-26T11:13:08.517Z,1008.08
2022-08-26T11:14:08.440Z,1008.09
2022-08-26T11:15:08.389Z,1008.04
2022-08-26T11:16:08.510Z,1008.05
2022-08-26T11:17:08.359Z,1008.06
2022-08-26T11:18:08.448Z,1008.02
2022-08-26T11:19:08.349Z,1008.04
2022-08-26T11:20:13.605Z,1008.07
2022-08-26T11:21:10.208Z,1008.08
2022-08-26T11:22:08.311Z,1008.04
2022-08-26T11:23:08.326Z,1008.12
2022-08-26T11:24:08.280Z,1008.08
2022-08-26T11:25:08.308Z,1008.02
2022-08-26T11:26:08.706Z,1008.05
2022-08-26T11:27:08.250Z,1008.04
2022-08-26T11:28:08.459Z,1008.06
2022-08-26T11:29:12.861Z,1008.04
2022-08-26T11:30:09.220Z,1008.05
2022-08-26T11:31:08.263Z,1008.07
2022-08-26T11:32:08.206Z,1008.03
2022-08-26T11:33:08.414Z,1008.02
2022-08-26T11:34:08.831Z,1007.99
2022-08-26T11:35:08.191Z,1007.96
2022-08-26T11:36:12.135Z,1008.02
2022-08-26T11:37:08.197Z,1008.00
2022-08-26T11:38:08.291Z,1007.92
2022-08-26T11:39:08.181Z,1007.97
2022-08-26T11:40:08.233Z,1007.96
2022-08-26T11:41:08.101Z,1007.95
2022-08-26T11:42:08.301Z,1007.90
2022-08-26T11:43:08.221Z,1007.91
2022-08-26T11:44:08.173Z,1007.94
2022-08-26T11:45:08.158Z,1007.92
2022-08-26T11:46:09.225Z,1007.91
2022-08-26T11:47:11.512Z,1007.85
2022-08-26T11:48:08.138Z,1007.90
2022-08-26T11:49:08.023Z,1007.88
2022-08-26T11:50:08.075Z,1007.91
2022-08-26T11:51:08.469Z,1007.87
2022-08-26T11:52:08.001Z,1007.85
2022-08-26T11:53:07.992Z,1007.90
2022-08-26T11:54:08.109Z,1007.87
2022-08-26T11:55:08.043Z,1007.85
2022-08-26T11:56:08.133Z,1007.86
2022-08-26T11:57:09.271Z,1007.86
2022-08-26T11:58:08.440Z,1007.88
2022-08-26T11:59:08.023Z,1007.87
2022-08-26T12:00:09.493Z,1007.93
2022-08-26T12:01:09.815Z,1007.89
2022-08-26T12:02:07.933Z,1007.89
2022-08-26T12:03:08.552Z,1007.90
2022-08-26T12:04:08.026Z,1007.92
2022-08-26T12:05:07.922Z,1007.91
2022-08-26T12:06:07.873Z,1007.89
2022-08-26T12:07:08.896Z,1007.86